Weather at Detroit Metropolitan Wayne County Airport

Public forecast

Using degrees Fahrenheit for public forecast. Weather courtesy of forecast.io.

Current aviation weather report (METAR) for Detroit Metropolitan Wayne County Airport

Retrieved 2021/01/26 06:53 UTC (1 hour ago):

KDTW 260653Z 06009KT 8SM BKN032 BKN065 OVC100 M01/M06 A2982 RMK AO2 SNE49 SLP103 P0000 T10061056

Aviation forecast (TAF) for Detroit Metropolitan Wayne County Airport

Retrieved 2021/01/26 06:24 UTC (2 hours ago):

TAF KDTW 260523Z 2606/2712 06013KT P6SM BKN040 OVC080 TEMPO 2606/2610 SCT040 OVC120 FM261000 04013G20KT 2SM -SN OVC025 FM261100 04015G25KT 3/4SM -SN OVC007 FM261300 02013G20KT 2SM -SN BR OVC007 FM261500 02013KT 4SM -FZDZ BR OVC007 FM261700 36010KT 6SM BR OVC015 FM270100 33010KT 4SM -SHSN OVC025